aviador You're here:

KADF Decoded Metar

in
Report Time2017-07-22 23:56:00
UTC Time2017-07-23 00:50:47
Flight Rules vfr VFR
Wind310° at 03 kt
W.Decomp.*RWY 22: 3.0 kt RCW
W.Rank310° ranks 19
Current wind is below 310° avg. (6.3)
Visibility9999 m
Phenomena:N/A
Clouds:Few 050 Hf
Expected CloudBase > 3,200 ft AGL from Temp-Dew spread
CeilingNone
Temp34°C
Dew Point26°C (63% RH)
Heat Index43.5°C
QNH1012 hPa
Raw Report
KADF 222356Z AUTO 31003KT 10SM FEW050 34/26 A2988 RMK AO2 SLP118
T03390256 10356 20333 55007=

Extra information for KADF:More info

Social comments